createdAt,value
2019-03-22T00:00:24.241Z,16.25
2019-03-22T00:02:53.142Z,21.62
2019-03-22T00:05:21.982Z,31.87
2019-03-22T00:07:50.838Z,30.55
2019-03-22T00:10:19.673Z,33.48
2019-03-22T00:12:48.540Z,36.93
2019-03-22T00:15:17.385Z,33.35
2019-03-22T00:17:46.266Z,34.73
2019-03-22T00:20:15.521Z,29.00
2019-03-22T00:22:44.364Z,21.48
2019-03-22T00:25:13.207Z,10.72
2019-03-22T00:27:43.048Z,14.60
2019-03-22T00:30:11.889Z,8.15
2019-03-22T00:32:40.746Z,10.78
2019-03-22T00:35:09.788Z,11.85
2019-03-22T00:37:39.664Z,7.53
2019-03-22T00:40:10.692Z,9.20
2019-03-22T00:42:39.547Z,12.98
2019-03-22T00:45:10.692Z,8.65
2019-03-22T00:47:39.528Z,7.75
2019-03-22T00:50:10.666Z,9.85
2019-03-22T00:52:39.526Z,6.15
2019-03-22T00:55:08.548Z,6.95
2019-03-22T00:57:37.385Z,5.47
2019-03-22T01:00:11.533Z,5.40
2019-03-22T01:02:40.411Z,4.75
2019-03-22T01:05:09.820Z,7.15
2019-03-22T01:07:38.673Z,6.25
2019-03-22T01:10:09.815Z,6.12
2019-03-22T01:12:38.789Z,8.73
2019-03-22T01:15:09.544Z,8.75
2019-03-22T01:17:39.365Z,6.90
2019-03-22T01:20:09.940Z,5.97
2019-03-22T01:22:38.780Z,6.90
2019-03-22T01:25:08.936Z,5.17
2019-03-22T01:27:40.736Z,6.08
2019-03-22T01:30:11.280Z,7.67
2019-03-22T01:32:40.121Z,6.00
2019-03-22T01:35:08.968Z,8.03
2019-03-22T01:37:37.808Z,6.97
2019-03-22T01:40:09.296Z,4.35
2019-03-22T01:42:38.144Z,7.77
2019-03-22T01:45:12.358Z,6.60
2019-03-22T01:47:41.204Z,6.42
2019-03-22T01:50:15.439Z,6.03
2019-03-22T01:52:44.293Z,11.28
2019-03-22T01:55:13.244Z,5.97
2019-03-22T01:57:52.239Z,6.85
2019-03-22T02:00:17.251Z,4.30
2019-03-22T02:02:46.092Z,8.28
2019-03-22T02:05:16.260Z,8.85
2019-03-22T02:07:45.409Z,7.72
2019-03-22T02:10:14.455Z,5.08
2019-03-22T02:12:43.292Z,8.15
2019-03-22T02:15:16.269Z,9.20
2019-03-22T02:17:45.355Z,9.53
2019-03-22T02:20:16.193Z,4.33
2019-03-22T02:22:45.836Z,4.58
2019-03-22T02:25:14.972Z,6.10
2019-03-22T02:27:43.834Z,3.98
2019-03-22T02:30:14.961Z,9.53
2019-03-22T02:32:43.816Z,6.72
2019-03-22T02:35:27.392Z,5.65
2019-03-22T02:37:43.237Z,3.15
2019-03-22T02:40:13.085Z,7.15
2019-03-22T02:42:41.931Z,8.33
2019-03-22T02:45:13.202Z,7.80
2019-03-22T02:47:42.057Z,8.65
2019-03-22T02:50:18.763Z,13.55
2019-03-22T02:52:42.858Z,7.60
2019-03-22T02:55:12.211Z,9.80
2019-03-22T02:57:41.058Z,8.78
2019-03-22T03:00:17.541Z,12.50
2019-03-22T03:02:46.403Z,6.85
2019-03-22T03:05:15.623Z,7.20
2019-03-22T03:07:44.599Z,12.60
2019-03-22T03:10:15.390Z,11.03
2019-03-22T03:12:44.824Z,14.85
2019-03-22T03:15:18.890Z,31.95
2019-03-22T03:17:47.796Z,33.02
2019-03-22T03:20:20.025Z,35.85
2019-03-22T03:22:48.919Z,32.03
2019-03-22T03:25:18.540Z,35.38
2019-03-22T03:27:47.372Z,24.77
2019-03-22T03:30:20.288Z,22.73
2019-03-22T03:32:49.248Z,25.25
2019-03-22T03:35:18.645Z,19.32
2019-03-22T03:37:47.743Z,23.65
2019-03-22T03:40:18.424Z,20.80
2019-03-22T03:42:47.276Z,17.67
2019-03-22T03:45:36.206Z,19.25
2019-03-22T03:48:11.289Z,12.03
2019-03-22T03:50:40.234Z,8.95
2019-03-22T03:53:09.095Z,12.90
2019-03-22T03:55:37.948Z,10.68
2019-03-22T03:58:07.001Z,11.03
2019-03-22T04:00:35.903Z,10.40
2019-03-22T04:03:04.915Z,13.00
2019-03-22T04:05:33.814Z,7.20
2019-03-22T04:08:02.723Z,18.15
2019-03-22T04:10:31.574Z,12.93
2019-03-22T04:13:00.434Z,17.75
2019-03-22T04:15:48.569Z,10.18
2019-03-22T04:18:17.398Z,6.80
2019-03-22T04:20:46.247Z,11.68
2019-03-22T04:23:15.092Z,11.83
2019-03-22T04:25:43.935Z,7.12
2019-03-22T04:28:12.814Z,9.78
2019-03-22T04:30:41.648Z,8.40
2019-03-22T04:33:10.493Z,10.98
2019-03-22T04:35:39.337Z,6.40
2019-03-22T04:38:08.174Z,12.23
2019-03-22T04:40:37.140Z,6.10
2019-03-22T04:43:05.995Z,11.75
2019-03-22T04:45:36.818Z,13.80
2019-03-22T04:48:20.437Z,16.40
2019-03-22T04:50:51.251Z,10.03
2019-03-22T04:53:23.256Z,9.53
2019-03-22T04:55:55.078Z,38.78
2019-03-22T04:58:24.821Z,8.88
2019-03-22T05:00:55.672Z,11.12
2019-03-22T05:03:26.544Z,13.00
2019-03-22T05:05:57.148Z,8.73
2019-03-22T05:08:28.332Z,12.28
2019-03-22T05:10:58.579Z,14.45
2019-03-22T05:13:28.620Z,10.70
2019-03-22T05:15:57.980Z,13.80
2019-03-22T05:18:28.329Z,18.77
2019-03-22T05:20:57.552Z,12.53
2019-03-22T05:23:27.909Z,9.23
2019-03-22T05:25:59.924Z,8.08
2019-03-22T05:28:29.976Z,9.75
2019-03-22T05:31:10.600Z,7.40
2019-03-22T05:33:39.552Z,12.60
2019-03-22T05:36:08.392Z,14.47
2019-03-22T05:38:37.260Z,10.82
2019-03-22T05:41:06.105Z,8.98
2019-03-22T05:43:34.956Z,14.28
2019-03-22T05:46:03.801Z,10.65
2019-03-22T05:48:32.644Z,20.35
2019-03-22T05:51:01.516Z,11.73
2019-03-22T05:53:30.383Z,11.15
2019-03-22T05:55:59.204Z,15.58
2019-03-22T05:58:28.045Z,16.07
2019-03-22T06:00:56.887Z,12.47
2019-03-22T06:03:25.747Z,9.93
2019-03-22T06:05:54.628Z,10.38
2019-03-22T06:08:23.453Z,13.25
2019-03-22T06:10:52.332Z,13.93
2019-03-22T06:13:23.149Z,11.48
2019-03-22T06:15:51.992Z,11.03
2019-03-22T06:18:20.836Z,13.30
2019-03-22T06:20:49.684Z,14.43
2019-03-22T06:23:21.283Z,13.30
2019-03-22T06:25:50.132Z,10.65
2019-03-22T06:28:18.977Z,15.23
2019-03-22T06:30:47.903Z,13.78
2019-03-22T06:33:16.745Z,12.20
2019-03-22T06:35:45.600Z,13.38
2019-03-22T06:38:14.445Z,8.38
2019-03-22T06:40:43.292Z,14.15
2019-03-22T06:43:12.136Z,13.30
2019-03-22T06:45:40.988Z,9.15
2019-03-22T06:48:09.874Z,10.88
2019-03-22T06:50:38.716Z,11.38
2019-03-22T06:53:07.568Z,12.07
2019-03-22T06:55:36.409Z,7.40
2019-03-22T06:58:05.258Z,10.23
2019-03-22T07:00:34.116Z,7.70
2019-03-22T07:03:02.963Z,10.03
2019-03-22T07:05:31.812Z,11.60
2019-03-22T07:08:00.673Z,10.80
2019-03-22T07:10:29.544Z,9.25
2019-03-22T07:12:58.395Z,8.48
2019-03-22T07:15:27.241Z,8.93
2019-03-22T07:17:56.096Z,14.23
2019-03-22T07:20:24.948Z,17.60
2019-03-22T07:22:53.860Z,18.25
2019-03-22T07:25:22.732Z,13.43
2019-03-22T07:27:51.572Z,13.72
2019-03-22T07:30:20.524Z,11.55
2019-03-22T07:32:49.386Z,17.20
2019-03-22T07:35:18.248Z,15.40
2019-03-22T07:37:47.135Z,12.82
2019-03-22T07:40:15.980Z,8.30
2019-03-22T07:42:44.820Z,8.60
2019-03-22T07:45:13.804Z,11.35
2019-03-22T07:47:42.681Z,8.40
2019-03-22T07:50:13.440Z,10.78
2019-03-22T07:52:42.320Z,10.63
2019-03-22T07:55:11.260Z,10.80
2019-03-22T07:57:40.111Z,11.65
2019-03-22T08:00:11.741Z,11.53
2019-03-22T08:02:40.597Z,13.75
2019-03-22T08:05:09.440Z,13.22
2019-03-22T08:07:38.329Z,7.50
2019-03-22T08:10:08.713Z,11.57
2019-03-22T08:12:37.540Z,20.50
2019-03-22T08:15:08.759Z,23.92
2019-03-22T08:17:37.764Z,15.32
2019-03-22T08:20:07.293Z,10.48
2019-03-22T08:22:36.168Z,12.35
2019-03-22T08:25:05.713Z,9.78
2019-03-22T08:27:34.577Z,6.80
2019-03-22T08:30:03.667Z,15.55
2019-03-22T08:32:32.486Z,18.32
2019-03-22T08:35:01.331Z,9.73
2019-03-22T08:37:31.427Z,17.02
2019-03-22T08:40:00.458Z,11.60
2019-03-22T08:42:29.428Z,10.18
2019-03-22T08:44:58.281Z,11.30
2019-03-22T08:47:33.625Z,15.72
2019-03-22T08:49:57.632Z,9.00
2019-03-22T08:52:26.465Z,14.13
2019-03-22T08:54:55.322Z,11.78
2019-03-22T08:57:25.188Z,12.35
2019-03-22T08:59:54.307Z,24.90
2019-03-22T09:02:23.157Z,11.53
2019-03-22T09:04:51.998Z,8.83
2019-03-22T09:07:20.964Z,9.13
2019-03-22T09:09:49.825Z,10.30
2019-03-22T09:12:18.665Z,12.78
2019-03-22T09:14:47.562Z,18.87
2019-03-22T09:17:16.440Z,8.80
2019-03-22T09:19:45.264Z,17.37
2019-03-22T09:22:14.178Z,12.63
2019-03-22T09:24:42.984Z,31.68
2019-03-22T09:27:11.868Z,19.05
2019-03-22T09:29:40.757Z,18.20
2019-03-22T09:32:09.608Z,14.53
2019-03-22T09:34:38.474Z,11.18
2019-03-22T09:37:08.955Z,11.85
2019-03-22T09:39:37.904Z,9.18
2019-03-22T09:42:06.806Z,13.22
2019-03-22T09:44:43.069Z,8.43
2019-03-22T09:47:06.168Z,10.08
2019-03-22T09:49:35.048Z,16.23
2019-03-22T09:52:04.000Z,16.40
2019-03-22T09:54:32.880Z,15.23
2019-03-22T09:57:01.858Z,16.07
2019-03-22T09:59:30.740Z,13.55
2019-03-22T10:01:59.732Z,14.18
2019-03-22T10:04:28.567Z,10.78
2019-03-22T10:06:57.466Z,11.12
2019-03-22T10:09:26.318Z,13.75
2019-03-22T10:11:55.170Z,15.80
2019-03-22T10:14:24.071Z,9.73
2019-03-22T10:16:52.933Z,13.05
2019-03-22T10:19:21.800Z,20.35
2019-03-22T10:21:50.652Z,15.32
2019-03-22T10:24:19.533Z,10.00
2019-03-22T10:26:48.354Z,9.40
2019-03-22T10:29:17.290Z,15.95
2019-03-22T10:31:46.261Z,24.10
2019-03-22T10:34:15.263Z,9.75
2019-03-22T10:36:44.157Z,13.98
2019-03-22T10:39:13.012Z,13.53
2019-03-22T10:41:41.870Z,14.45
2019-03-22T10:44:10.798Z,16.95
2019-03-22T10:46:39.702Z,12.63
2019-03-22T10:49:08.605Z,15.38
2019-03-22T10:51:37.471Z,15.43
2019-03-22T10:54:06.292Z,11.97
2019-03-22T10:56:35.192Z,14.03
2019-03-22T10:59:04.034Z,18.67
2019-03-22T11:01:46.479Z,9.98
2019-03-22T11:06:32.188Z,12.30
2019-03-22T11:09:01.149Z,17.00
2019-03-22T11:11:30.008Z,18.05
2019-03-22T11:13:58.858Z,16.70
2019-03-22T11:16:27.715Z,14.40
2019-03-22T11:18:56.577Z,10.78
2019-03-22T11:21:25.489Z,21.42
2019-03-22T11:23:54.330Z,26.25
2019-03-22T11:26:23.191Z,27.93
2019-03-22T11:28:52.113Z,8.38
2019-03-22T11:31:28.178Z,17.07
2019-03-22T11:33:53.126Z,12.50
2019-03-22T11:36:21.965Z,9.40
2019-03-22T11:38:52.368Z,15.28
2019-03-22T11:41:21.215Z,12.03
2019-03-22T11:43:50.067Z,12.95
2019-03-22T11:46:22.074Z,10.60
2019-03-22T11:48:52.480Z,8.50
2019-03-22T11:51:21.335Z,12.45
2019-03-22T11:53:50.198Z,11.40
2019-03-22T11:56:19.044Z,10.50
2019-03-22T11:58:47.977Z,12.23
2019-03-22T12:01:20.371Z,10.03
2019-03-22T12:03:47.413Z,9.93
2019-03-22T12:06:16.256Z,14.50
2019-03-22T12:08:45.127Z,15.40
2019-03-22T12:11:14.000Z,10.85
2019-03-22T12:13:42.875Z,10.50
2019-03-22T12:16:11.727Z,14.63
2019-03-22T12:18:40.601Z,16.80
2019-03-22T12:21:09.477Z,19.32
2019-03-22T12:23:38.420Z,15.03
2019-03-22T12:26:07.618Z,15.30
2019-03-22T12:28:38.766Z,15.23
2019-03-22T12:31:07.681Z,10.10
2019-03-22T12:33:36.500Z,13.40
2019-03-22T12:36:05.447Z,14.35
2019-03-22T12:38:34.390Z,18.10
2019-03-22T12:41:03.222Z,18.65
2019-03-22T12:43:34.165Z,13.83
2019-03-22T12:46:02.703Z,10.18
2019-03-22T12:48:31.554Z,11.50
2019-03-22T12:51:00.396Z,15.35
2019-03-22T12:53:29.341Z,16.40
2019-03-22T12:55:58.188Z,15.83
2019-03-22T12:58:27.048Z,13.00
2019-03-22T13:00:56.046Z,14.80
2019-03-22T13:03:24.856Z,13.65
2019-03-22T13:05:53.710Z,19.65
2019-03-22T13:08:22.631Z,20.90
2019-03-22T13:10:51.472Z,20.23
2019-03-22T13:13:20.338Z,20.52
2019-03-22T13:15:49.328Z,23.47
2019-03-22T13:18:18.940Z,18.17
2019-03-22T13:20:51.234Z,13.65
2019-03-22T13:23:20.621Z,18.17
2019-03-22T13:25:49.504Z,9.88
2019-03-22T13:28:18.348Z,18.10
2019-03-22T13:30:47.276Z,16.48
2019-03-22T13:33:16.112Z,11.33
2019-03-22T13:35:44.976Z,7.95
2019-03-22T13:38:13.848Z,12.30
2019-03-22T13:40:42.699Z,19.30
2019-03-22T13:43:11.565Z,12.28
2019-03-22T13:45:40.504Z,11.38
2019-03-22T13:48:09.384Z,14.50
2019-03-22T13:50:39.961Z,15.98
2019-03-22T13:53:08.862Z,18.57
2019-03-22T13:55:37.744Z,12.73
2019-03-22T13:58:06.589Z,9.05
2019-03-22T14:00:35.459Z,9.53
2019-03-22T14:03:04.314Z,17.25
2019-03-22T14:05:33.171Z,10.68
2019-03-22T14:08:02.096Z,22.77
2019-03-22T14:10:37.195Z,13.83
2019-03-22T14:13:07.401Z,18.80
2019-03-22T14:15:36.216Z,18.80
2019-03-22T14:18:07.692Z,11.73
2019-03-22T14:20:36.566Z,19.37
2019-03-22T14:23:06.329Z,12.25
2019-03-22T14:25:35.231Z,10.03
2019-03-22T14:28:04.177Z,17.35
2019-03-22T14:30:33.088Z,14.63
2019-03-22T14:33:01.931Z,12.90
2019-03-22T14:35:30.824Z,13.68
2019-03-22T14:37:59.678Z,17.80
2019-03-22T14:40:28.538Z,11.22
2019-03-22T14:42:57.443Z,16.20
2019-03-22T14:45:26.333Z,22.77
2019-03-22T14:47:55.188Z,14.23
2019-03-22T14:50:24.074Z,15.35
2019-03-22T14:52:53.524Z,17.65
2019-03-22T14:55:22.592Z,10.50
2019-03-22T14:57:52.504Z,12.05
2019-03-22T15:00:21.550Z,14.40
2019-03-22T15:02:50.499Z,11.08
2019-03-22T15:05:19.376Z,9.85
2019-03-22T15:07:48.214Z,15.75
2019-03-22T15:10:17.398Z,12.53
2019-03-22T15:12:46.658Z,10.10
2019-03-22T15:15:19.901Z,19.57
2019-03-22T15:18:06.948Z,17.27
2019-03-22T15:20:53.784Z,20.72
2019-03-22T15:23:24.240Z,19.12
2019-03-22T15:26:03.724Z,11.95
2019-03-22T15:28:49.544Z,21.35
2019-03-22T15:31:39.834Z,19.05
2019-03-22T15:34:13.518Z,13.78
2019-03-22T15:36:49.702Z,18.73
2019-03-22T15:39:23.184Z,18.45
2019-03-22T15:41:52.193Z,9.73
2019-03-22T15:44:21.072Z,10.38
2019-03-22T15:46:50.197Z,14.15
2019-03-22T15:49:19.104Z,19.02
2019-03-22T15:51:48.840Z,10.30
2019-03-22T15:54:17.813Z,21.07
2019-03-22T15:56:46.692Z,14.50
2019-03-22T15:59:15.532Z,15.93
2019-03-22T16:01:44.387Z,20.20
2019-03-22T16:04:13.231Z,19.52
2019-03-22T16:06:42.079Z,30.12
2019-03-22T16:09:11.440Z,16.32
2019-03-22T16:11:40.340Z,24.00
2019-03-22T16:14:09.192Z,22.87
2019-03-22T16:16:38.042Z,39.67
2019-03-22T16:19:09.281Z,50.10
2019-03-22T16:21:38.160Z,38.55
2019-03-22T16:24:08.592Z,36.50
2019-03-22T16:26:37.460Z,32.80
2019-03-22T16:29:06.320Z,21.90
2019-03-22T16:31:35.184Z,30.60
2019-03-22T16:34:04.060Z,32.13
2019-03-22T16:36:32.912Z,33.30
2019-03-22T16:39:04.794Z,31.77
2019-03-22T16:41:33.641Z,22.27
2019-03-22T16:44:02.492Z,23.92
2019-03-22T16:46:37.027Z,35.23
2019-03-22T16:49:04.036Z,17.92
2019-03-22T16:51:32.889Z,22.90
2019-03-22T16:54:01.741Z,27.93
2019-03-22T16:56:30.591Z,32.80
2019-03-22T16:58:59.483Z,19.23
2019-03-22T17:01:31.034Z,43.68
2019-03-22T17:04:04.370Z,26.73
2019-03-22T17:06:30.822Z,19.75
2019-03-22T17:09:00.432Z,26.27
2019-03-22T17:11:29.476Z,19.48
2019-03-22T17:13:58.322Z,23.07
2019-03-22T17:16:27.176Z,32.20
2019-03-22T17:18:56.028Z,45.03
2019-03-22T17:21:24.908Z,15.25
2019-03-22T17:23:55.225Z,26.00
2019-03-22T17:26:24.067Z,13.48
2019-03-22T17:28:54.489Z,9.98
2019-03-22T17:31:23.343Z,17.80
2019-03-22T17:33:52.185Z,16.02
2019-03-22T17:36:21.059Z,16.25
2019-03-22T17:38:49.909Z,18.25
2019-03-22T17:41:18.752Z,18.87
2019-03-22T17:43:47.606Z,16.27
2019-03-22T17:46:16.510Z,23.07
2019-03-22T17:48:46.091Z,15.13
2019-03-22T17:51:14.900Z,19.25
2019-03-22T17:53:43.820Z,21.77
2019-03-22T17:56:12.668Z,21.60
2019-03-22T17:58:41.548Z,19.12
2019-03-22T18:01:10.435Z,13.48
2019-03-22T18:03:39.276Z,19.95
2019-03-22T18:06:08.116Z,18.12
2019-03-22T18:08:37.344Z,18.27
2019-03-22T18:11:06.341Z,17.67
2019-03-22T18:13:35.260Z,16.10
2019-03-22T18:16:04.599Z,15.43
2019-03-22T18:18:33.584Z,13.10
2019-03-22T18:21:02.440Z,16.90
2019-03-22T18:23:35.663Z,15.55
2019-03-22T18:26:01.813Z,17.70
2019-03-22T18:28:30.669Z,11.97
2019-03-22T18:30:59.568Z,21.25
2019-03-22T18:33:28.440Z,11.88
2019-03-22T18:35:57.306Z,19.85
2019-03-22T18:38:26.173Z,13.62
2019-03-22T18:40:56.500Z,10.55
2019-03-22T18:43:25.352Z,9.83
2019-03-22T18:45:54.232Z,12.07
2019-03-22T18:48:23.084Z,11.60
2019-03-22T18:50:56.732Z,13.83
2019-03-22T18:53:22.464Z,12.43
2019-03-22T18:55:51.337Z,8.23
2019-03-22T18:58:20.383Z,11.93
2019-03-22T19:00:49.807Z,7.95
2019-03-22T19:03:18.892Z,17.25
2019-03-22T19:05:47.772Z,16.55
2019-03-22T19:08:16.724Z,19.37
2019-03-22T19:10:45.578Z,11.45
2019-03-22T19:13:14.421Z,16.65
2019-03-22T19:15:43.487Z,38.95
2019-03-22T19:18:15.436Z,12.93
2019-03-22T19:20:44.428Z,18.98
2019-03-22T19:23:13.282Z,11.40
2019-03-22T19:25:42.322Z,25.75
2019-03-22T19:28:15.893Z,28.45
2019-03-22T19:30:44.756Z,26.20
2019-03-22T19:33:14.022Z,21.15
2019-03-22T19:35:43.545Z,12.70
2019-03-22T19:38:12.407Z,11.75
2019-03-22T19:40:41.278Z,11.80
2019-03-22T19:43:11.721Z,13.98
2019-03-22T19:45:41.590Z,12.78
2019-03-22T19:48:10.425Z,14.25
2019-03-22T19:50:39.380Z,15.38
2019-03-22T19:53:09.564Z,9.03
2019-03-22T19:55:38.473Z,15.43
2019-03-22T19:58:08.164Z,12.03
2019-03-22T20:00:37.015Z,8.93
2019-03-22T20:03:05.864Z,13.30
2019-03-22T20:05:35.188Z,10.98
2019-03-22T20:08:04.096Z,14.78
2019-03-22T20:10:32.939Z,15.55
2019-03-22T20:13:01.838Z,14.43
2019-03-22T20:15:31.295Z,15.20
2019-03-22T20:18:00.148Z,24.07
2019-03-22T20:20:29.636Z,37.10
2019-03-22T20:22:58.544Z,29.98
2019-03-22T20:25:27.397Z,26.33
2019-03-22T20:27:56.312Z,15.98
2019-03-22T20:30:27.308Z,19.05
2019-03-22T20:32:56.185Z,18.32
2019-03-22T20:35:25.096Z,14.40
2019-03-22T20:37:54.929Z,15.13
2019-03-22T20:40:23.769Z,20.08
2019-03-22T20:42:52.615Z,22.32
2019-03-22T20:45:24.296Z,29.37
2019-03-22T20:47:51.977Z,25.23
2019-03-22T20:50:20.834Z,19.67
2019-03-22T20:52:51.142Z,27.40
2019-03-22T20:55:19.996Z,28.92
2019-03-22T20:57:50.547Z,30.10
2019-03-22T21:00:19.414Z,27.75
2019-03-22T21:02:48.278Z,29.95
2019-03-22T21:05:26.418Z,24.80
2019-03-22T21:07:47.660Z,30.77
2019-03-22T21:10:17.112Z,42.73
2019-03-22T21:12:45.985Z,36.08
2019-03-22T21:15:23.998Z,28.92
2019-03-22T21:17:45.464Z,27.35
2019-03-22T21:20:14.416Z,38.70
2019-03-22T21:22:43.270Z,41.83
2019-03-22T21:25:15.186Z,35.70
2019-03-22T21:27:44.080Z,37.30
2019-03-22T21:30:15.236Z,26.00
2019-03-22T21:32:45.943Z,25.77
2019-03-22T21:35:25.409Z,25.65
2019-03-22T21:37:54.382Z,25.10
2019-03-22T21:40:23.236Z,27.55
2019-03-22T21:42:52.120Z,26.82
2019-03-22T21:45:20.986Z,23.20
2019-03-22T21:47:52.192Z,27.15
2019-03-22T21:50:21.051Z,24.23
2019-03-22T21:52:50.288Z,32.88
2019-03-22T21:55:19.167Z,28.17
2019-03-22T21:58:00.166Z,39.42
2019-03-22T22:00:31.374Z,70.57
2019-03-22T22:03:02.958Z,44.75
2019-03-22T22:05:31.819Z,37.15
2019-03-22T22:08:03.829Z,30.90
2019-03-22T22:10:34.093Z,37.33
2019-03-22T22:13:02.983Z,41.08
2019-03-22T22:15:32.938Z,44.48
2019-03-22T22:18:02.389Z,51.63
2019-03-22T22:20:31.256Z,49.70
2019-03-22T22:23:05.095Z,60.63
2019-03-22T22:25:36.677Z,52.83
2019-03-22T22:28:05.524Z,46.70
2019-03-22T22:30:34.509Z,45.50
2019-03-22T22:33:03.375Z,50.85
2019-03-22T22:35:32.215Z,49.15
2019-03-22T22:38:01.232Z,49.70
2019-03-22T22:40:30.440Z,53.78
2019-03-22T22:42:59.472Z,44.90
2019-03-22T22:45:29.631Z,42.85
2019-03-22T22:47:59.956Z,37.67
2019-03-22T22:50:28.832Z,45.60
2019-03-22T22:52:57.687Z,47.75
2019-03-22T22:55:26.545Z,47.67
2019-03-22T22:57:55.408Z,39.55
2019-03-22T23:00:25.858Z,51.90
2019-03-22T23:02:56.187Z,43.02
2019-03-22T23:05:25.045Z,55.98
2019-03-22T23:07:53.925Z,48.10
2019-03-22T23:10:23.092Z,42.70
2019-03-22T23:12:53.050Z,62.98
2019-03-22T23:15:21.901Z,52.83
2019-03-22T23:17:50.750Z,48.25
2019-03-22T23:20:19.639Z,51.05
2019-03-22T23:22:48.488Z,42.60
2019-03-22T23:25:17.706Z,50.12
2019-03-22T23:27:46.560Z,47.45
2019-03-22T23:30:16.326Z,55.17
2019-03-22T23:32:45.214Z,53.38
2019-03-22T23:35:14.062Z,52.95
2019-03-22T23:37:43.333Z,50.85
2019-03-22T23:40:12.288Z,51.00
2019-03-22T23:42:41.664Z,51.55
2019-03-22T23:45:11.220Z,56.95
2019-03-22T23:47:40.097Z,48.83
2019-03-22T23:50:09.648Z,51.23
2019-03-22T23:52:38.505Z,39.33
2019-03-22T23:55:08.052Z,53.35
2019-03-22T23:57:38.385Z,40.03
